Gracewood, GA (30812)

6:21 AM EDT on August 02, 2015 (GMT -0400)
Tobacco Road | | Change Station
CLOSE
Current Station
Personal Weather Station
Location: Gracewood, GA
Elevation: 295 ft
Nearby Weather Stations

Elev 295 ft 33.37 °N, 82.03 °W | Updated 1 minute ago

Overcast
Overcast
72.4 °F
Feels Like 72.4 °F
N
0.0
Wind Variable Wind from SSW
Gusts 0.0 mph

Today
High -- | Low -- °F
--% Chance of Precip.
Yesterday
High -- | Low -- °F
Precip. -- in
6:41 AM 8:26 PM
Waning Gibbous, 94% visible
Pressure 29.90 in
Visibility 6.0 miles
Clouds Overcast 600 ft
Dew Point 70 °F
Humidity 92%
Rainfall 0.00 in
Snow Depth Not available.
UV 0 out of 12
Pollen 4.70 out of 12
Air Quality Not available.
Flu Activity Not available.
METAR KAGS 020953Z AUTO 00000KT 6SM BR OVC006 23/22 A2990 RMK AO2 SLP123 T02280222

More Conditions Fewer Conditions

Pressure 29.90 in
Visibility 6.0 miles
Clouds Overcast 600 ft
Dew Point 70 °F
Humidity 92%
Rainfall 0.00 in
Snow Depth Not available.
UV 0 out of 12
Pollen 4.70 out of 12
Air Quality Not available.
Flu Activity Not available.
METAR KAGS 020953Z AUTO 00000KT 6SM BR OVC006 23/22 A2990 RMK AO2 SLP123 T02280222

More Conditions Fewer Conditions

10-Day Weather Forecast

×

Almanac

Astronomy

Aug. 02, 2015 Rise Set
Actual Time
Civil Twilight
Nautical Twilight
Astronomical Twilight
Moon
Length of Visible Light
Length of Day
Tomorrow will be .
, % of the Moon is Illuminated

Today's Extremes

State Highs State Lows

Community

WunderPhotos

Upload Photos

1,843,214 photos uploaded!

WunderBlogs® & News

Nearby

Air Quality

  Air Quality AQ Index Pollutant
Not available.

Snow Depth

Station Depth Elevation

Earthquake Activity

City Distance Mag. Time & Date
Minimum magnitude displayed is 2.5.

Coastal Water Temperatures

Place Temperature

Stations

Nearby Weather Stations

Station Location Temp. Windchill Dew Point Humidity Wind Precip. Elev Updated Type